Search for airport 
image banner adimage banner adimage banner ad
image banner ad

63PN - Helicopter Services

Located in Coopersburg, United States

ICAO - 63PN, IATA -

Data provided by Airmate  

General information

Coordinates: N40°30'30" W75°23'39"
Elevation is 620 feet MSL.
Magnetic variation is -11° East
View others Airports in Pennsylvania

Operational data

Special qualification required
Current time UTC:
Current local time:
Weather at : KUKT - Quakertown ( 8 km )
METAR: KUKT 071215Z AUTO 05004KT 10SM CLR 11/00 A2993 RMK A01
View NOTAMs / SUP AIP / TFR affecting this airport [VIEW]
Communications frequencies: [VIEW]

Runways:

Airport contact information

Address: Coopersburg United States

Satellite view of 63PN